Alburgh, Vermont
Current Conditions -  °F | °C
As of 5:15 PM on Wednesday 26 Nov 2014 (Local Time) from KFSO Reporting Station
Light Snow Light Snow  
Wind Chill: 24°   Ceiling: 1100
Heat Index: 29°   Visibility: 1.2mi
Dew Point: 27°   Wind: 5mph
Humidity: 90%   Direction: 10°N
Pressure: 30.12"   Gusts: NA
Location:  44.98°N, 73.3°W
Report Text: KFSO 262115Z AUTO 01004KT 1 1/4SM -SN OVC011 M02/M03 A3012 RMK AO2 T10161030
Loading
Personal Weather Stations






























Interactive Weather Map New forecast layout! Learn more

10-Day Weather Forecast

Advertisements
Track Severe Weather on mobile